createdAt,value
2022-10-09T00:00:17.558Z,88.72
2022-10-09T00:01:20.453Z,88.76
2022-10-09T00:02:23.650Z,88.81
2022-10-09T00:03:59.105Z,88.76
2022-10-09T00:05:02.033Z,88.75
2022-10-09T00:06:05.476Z,88.77
2022-10-09T00:07:40.098Z,88.72
2022-10-09T00:08:42.896Z,88.73
2022-10-09T00:09:45.959Z,88.68
2022-10-09T00:11:20.553Z,88.62
2022-10-09T00:12:23.422Z,88.60
2022-10-09T00:13:26.654Z,88.56
2022-10-09T00:15:01.605Z,88.50
2022-10-09T00:16:04.383Z,88.45
2022-10-09T00:17:07.961Z,88.46
2022-10-09T00:18:42.797Z,88.48
2022-10-09T00:19:45.555Z,88.45
2022-10-09T00:20:48.305Z,88.47
2022-10-09T00:22:22.985Z,88.47
2022-10-09T00:23:26.185Z,88.49
2022-10-09T00:24:29.096Z,88.45
2022-10-09T00:26:03.822Z,88.52
2022-10-09T00:27:06.644Z,88.56
2022-10-09T00:28:09.526Z,88.70
2022-10-09T00:29:50.935Z,88.68
2022-10-09T00:30:53.727Z,88.74
2022-10-09T00:31:57.255Z,88.75
2022-10-09T00:33:32.515Z,88.74
2022-10-09T00:34:35.243Z,88.77
2022-10-09T00:35:38.097Z,88.83
2022-10-09T00:37:12.886Z,88.93
2022-10-09T00:38:15.698Z,88.94
2022-10-09T00:39:18.708Z,88.98
2022-10-09T00:40:53.314Z,89.09
2022-10-09T00:41:56.033Z,89.29
2022-10-09T00:42:58.847Z,89.59
2022-10-09T00:44:33.579Z,89.83
2022-10-09T00:45:36.400Z,89.87
2022-10-09T00:46:39.745Z,89.90
2022-10-09T00:48:14.708Z,89.86
2022-10-09T00:49:17.705Z,89.89
2022-10-09T00:50:20.478Z,89.80
2022-10-09T00:51:55.521Z,89.87
2022-10-09T00:52:58.246Z,89.90
2022-10-09T00:54:01.060Z,89.83
2022-10-09T00:55:35.710Z,89.90
2022-10-09T00:56:38.444Z,89.90
2022-10-09T00:57:41.499Z,90.02
2022-10-09T00:59:15.966Z,89.85
2022-10-09T01:00:18.302Z,89.84
2022-10-09T01:01:21.566Z,89.81
2022-10-09T01:02:25.196Z,89.85
2022-10-09T01:04:00.696Z,89.95
2022-10-09T01:05:03.520Z,90.05
2022-10-09T01:06:06.341Z,89.99
2022-10-09T01:07:40.765Z,90.03
2022-10-09T01:08:43.468Z,90.12
2022-10-09T01:09:46.316Z,90.10
2022-10-09T01:11:21.018Z,90.14
2022-10-09T01:12:23.931Z,90.26
2022-10-09T01:13:27.462Z,90.25
2022-10-09T01:15:02.043Z,90.29
2022-10-09T01:16:05.045Z,90.33
2022-10-09T01:17:14.493Z,90.30
2022-10-09T01:18:49.119Z,90.38
2022-10-09T01:19:51.809Z,90.42
2022-10-09T01:20:54.616Z,90.41
2022-10-09T01:22:29.432Z,90.38
2022-10-09T01:23:32.897Z,90.43
2022-10-09T01:24:35.655Z,90.38
2022-10-09T01:26:10.642Z,90.38
2022-10-09T01:27:13.469Z,90.43
2022-10-09T01:28:16.476Z,90.35
2022-10-09T01:29:51.817Z,90.37
2022-10-09T01:30:54.657Z,90.29
2022-10-09T01:31:58.069Z,90.31
2022-10-09T01:33:33.290Z,90.29
2022-10-09T01:34:36.156Z,90.33
2022-10-09T01:35:38.975Z,90.19
2022-10-09T01:37:13.471Z,90.23
2022-10-09T01:38:16.619Z,90.24
2022-10-09T01:39:19.436Z,90.22
2022-10-09T01:40:54.121Z,90.22
2022-10-09T01:41:56.899Z,90.18
2022-10-09T01:42:59.631Z,90.27
2022-10-09T01:44:34.199Z,90.22
2022-10-09T01:45:37.044Z,90.24
2022-10-09T01:46:40.144Z,90.42
2022-10-09T01:48:15.045Z,90.37
2022-10-09T01:49:17.981Z,90.47
2022-10-09T01:50:20.838Z,90.49
2022-10-09T01:51:55.395Z,90.53
2022-10-09T01:52:58.937Z,90.69
2022-10-09T01:54:01.879Z,90.63
2022-10-09T01:55:36.572Z,90.64
2022-10-09T01:56:39.502Z,90.61
2022-10-09T01:57:42.469Z,90.69
2022-10-09T01:59:21.725Z,90.63
2022-10-09T02:00:17.636Z,90.69
2022-10-09T02:01:20.714Z,90.69
2022-10-09T02:02:25.056Z,90.71
2022-10-09T02:04:00.935Z,90.75
2022-10-09T02:05:03.696Z,90.59
2022-10-09T02:06:06.379Z,90.59
2022-10-09T02:07:41.061Z,90.60
2022-10-09T02:08:43.831Z,90.50
2022-10-09T02:09:46.555Z,90.43
2022-10-09T02:11:21.099Z,90.50
2022-10-09T02:12:23.704Z,90.46
2022-10-09T02:13:26.681Z,90.43
2022-10-09T02:15:01.098Z,90.41
2022-10-09T02:16:04.295Z,90.43
2022-10-09T02:17:07.237Z,90.38
2022-10-09T02:18:41.705Z,90.42
2022-10-09T02:19:44.667Z,90.39
2022-10-09T02:20:47.558Z,90.45
2022-10-09T02:22:26.728Z,90.51
2022-10-09T02:23:30.185Z,90.48
2022-10-09T02:24:32.813Z,90.50
2022-10-09T02:26:07.505Z,90.48
2022-10-09T02:27:10.325Z,90.52
2022-10-09T02:28:13.143Z,90.55
2022-10-09T02:29:48.030Z,90.55
2022-10-09T02:30:51.176Z,90.55
2022-10-09T02:31:54.293Z,90.59
2022-10-09T02:33:29.472Z,90.55
2022-10-09T02:34:32.271Z,90.56
2022-10-09T02:35:34.949Z,90.57
2022-10-09T02:37:09.414Z,90.60
2022-10-09T02:38:12.115Z,90.60
2022-10-09T02:39:14.967Z,90.58
2022-10-09T02:40:56.554Z,90.63
2022-10-09T02:41:59.369Z,90.56
2022-10-09T02:43:02.141Z,90.57
2022-10-09T02:44:36.952Z,90.60
2022-10-09T02:45:39.717Z,90.57
2022-10-09T02:46:42.655Z,90.60
2022-10-09T02:48:17.342Z,90.65
2022-10-09T02:49:20.014Z,90.62
2022-10-09T02:50:22.746Z,90.69
2022-10-09T02:51:57.621Z,90.82
2022-10-09T02:53:00.631Z,90.80
2022-10-09T02:54:03.534Z,90.76
2022-10-09T02:55:38.158Z,90.82
2022-10-09T02:56:44.787Z,90.87
2022-10-09T02:57:47.505Z,90.87
2022-10-09T02:59:22.109Z,90.81
2022-10-09T03:00:18.204Z,90.83
2022-10-09T03:01:21.006Z,90.82
2022-10-09T03:02:24.759Z,90.88
2022-10-09T03:04:01.111Z,90.83
2022-10-09T03:05:03.751Z,90.85
2022-10-09T03:06:07.573Z,90.88
2022-10-09T03:07:42.544Z,91.03
2022-10-09T03:08:45.188Z,91.02
2022-10-09T03:09:47.838Z,91.19
2022-10-09T03:11:22.699Z,91.22
2022-10-09T03:12:25.443Z,91.15
2022-10-09T03:13:28.906Z,91.18
2022-10-09T03:15:03.504Z,91.17
2022-10-09T03:16:06.600Z,91.14
2022-10-09T03:17:10.413Z,91.23
2022-10-09T03:18:44.890Z,91.32
2022-10-09T03:19:47.604Z,91.34
2022-10-09T03:20:50.449Z,91.57
2022-10-09T03:22:24.971Z,91.59
2022-10-09T03:23:28.030Z,91.64
2022-10-09T03:24:30.946Z,91.72
2022-10-09T03:26:05.704Z,91.64
2022-10-09T03:27:08.418Z,91.69
2022-10-09T03:28:11.204Z,91.69
2022-10-09T03:29:46.306Z,91.68
2022-10-09T03:30:48.991Z,91.71
2022-10-09T03:32:20.260Z,91.65
2022-10-09T03:33:54.928Z,91.78
2022-10-09T03:34:57.655Z,91.91
2022-10-09T03:36:00.432Z,91.92
2022-10-09T03:37:34.790Z,92.22
2022-10-09T03:38:37.843Z,92.09
2022-10-09T03:39:40.598Z,92.25
2022-10-09T03:41:15.259Z,92.21
2022-10-09T03:42:17.896Z,92.19
2022-10-09T03:43:20.695Z,92.52
2022-10-09T03:44:55.356Z,92.45
2022-10-09T03:46:01.004Z,92.41
2022-10-09T03:47:04.416Z,92.29
2022-10-09T03:48:38.882Z,92.23
2022-10-09T03:49:41.815Z,92.31
2022-10-09T03:50:44.486Z,92.29
2022-10-09T03:52:18.951Z,92.41
2022-10-09T03:53:21.846Z,92.43
2022-10-09T03:54:24.592Z,92.38
2022-10-09T03:55:59.293Z,92.39
2022-10-09T03:57:01.990Z,92.24
2022-10-09T03:58:04.648Z,92.18
2022-10-09T03:59:39.338Z,92.18
2022-10-09T04:00:18.027Z,92.14
2022-10-09T04:01:21.294Z,92.18
2022-10-09T04:02:24.375Z,92.12
2022-10-09T04:03:59.832Z,92.24
2022-10-09T04:05:48.465Z,92.29
2022-10-09T04:06:51.389Z,92.32
2022-10-09T04:07:54.108Z,92.24
2022-10-09T04:09:28.841Z,92.20
2022-10-09T04:10:31.593Z,92.10
2022-10-09T04:11:34.281Z,92.06
2022-10-09T04:13:08.915Z,92.08
2022-10-09T04:14:11.663Z,92.07
2022-10-09T04:15:14.280Z,92.09
2022-10-09T04:16:49.321Z,92.09
2022-10-09T04:17:52.138Z,92.07
2022-10-09T04:18:54.842Z,92.13
2022-10-09T04:20:29.307Z,92.10
2022-10-09T04:21:33.179Z,92.09
2022-10-09T04:22:36.226Z,92.10
2022-10-09T04:24:11.131Z,92.15
2022-10-09T04:25:13.943Z,92.15
2022-10-09T04:26:16.743Z,92.13
2022-10-09T04:27:51.181Z,92.13
2022-10-09T04:28:54.319Z,92.15
2022-10-09T04:29:57.362Z,92.16
2022-10-09T04:31:32.129Z,92.15
2022-10-09T04:32:35.436Z,92.12
2022-10-09T04:33:38.884Z,92.09
2022-10-09T04:35:13.445Z,92.16
2022-10-09T04:36:16.177Z,92.21
2022-10-09T04:37:18.890Z,92.18
2022-10-09T04:38:53.221Z,92.23
2022-10-09T04:39:55.908Z,92.20
2022-10-09T04:40:58.810Z,92.21
2022-10-09T04:42:33.264Z,92.23
2022-10-09T04:43:36.399Z,92.28
2022-10-09T04:44:39.080Z,92.31
2022-10-09T04:46:13.851Z,92.47
2022-10-09T04:47:17.211Z,92.52
2022-10-09T04:48:19.936Z,92.45
2022-10-09T04:49:54.373Z,92.48
2022-10-09T04:50:57.117Z,92.52
2022-10-09T04:51:59.935Z,92.52
2022-10-09T04:53:34.853Z,92.59
2022-10-09T04:54:41.270Z,92.57
2022-10-09T04:55:43.948Z,92.57
2022-10-09T04:57:18.486Z,92.48
2022-10-09T04:58:21.305Z,92.54
2022-10-09T04:59:24.087Z,92.53
2022-10-09T05:00:17.784Z,92.61
2022-10-09T05:01:20.669Z,92.56
2022-10-09T05:02:30.323Z,92.53
2022-10-09T05:04:05.475Z,92.58
2022-10-09T05:05:08.183Z,92.64
2022-10-09T05:06:11.060Z,92.66
2022-10-09T05:07:45.726Z,92.80
2022-10-09T05:08:48.468Z,92.76
2022-10-09T05:09:51.342Z,92.70
2022-10-09T05:11:26.202Z,92.74
2022-10-09T05:12:34.195Z,92.81
2022-10-09T05:13:37.567Z,92.75
2022-10-09T05:15:12.055Z,92.88
2022-10-09T05:16:14.990Z,92.89
2022-10-09T05:17:53.851Z,92.84
2022-10-09T05:19:28.684Z,92.83
2022-10-09T05:20:31.372Z,92.80
2022-10-09T05:21:34.229Z,92.78
2022-10-09T05:23:08.695Z,92.81
2022-10-09T05:24:16.029Z,92.78
2022-10-09T05:25:18.842Z,92.75
2022-10-09T05:26:53.594Z,92.75
2022-10-09T05:27:56.597Z,92.71
2022-10-09T05:28:59.599Z,92.72
2022-10-09T05:30:34.383Z,92.68
2022-10-09T05:31:37.216Z,92.70
2022-10-09T05:32:46.868Z,92.66
2022-10-09T05:34:21.598Z,92.66
2022-10-09T05:35:24.442Z,92.60
2022-10-09T05:36:27.213Z,92.77
2022-10-09T05:38:01.706Z,92.67
2022-10-09T05:39:04.470Z,92.70
2022-10-09T05:40:07.244Z,92.82
2022-10-09T05:41:47.012Z,92.86
2022-10-09T05:42:50.193Z,92.82
2022-10-09T05:43:53.091Z,92.82
2022-10-09T05:45:27.648Z,92.92
2022-10-09T05:46:30.813Z,92.90
2022-10-09T05:47:33.647Z,92.93
2022-10-09T05:49:08.391Z,92.99
2022-10-09T05:50:11.117Z,93.00
2022-10-09T05:51:13.859Z,93.23
2022-10-09T05:52:48.954Z,93.19
2022-10-09T05:53:51.769Z,93.19
2022-10-09T05:54:54.534Z,93.22
2022-10-09T05:56:29.070Z,93.29
2022-10-09T05:57:31.678Z,93.35
2022-10-09T05:58:34.339Z,93.41
2022-10-09T06:00:17.541Z,93.61
2022-10-09T06:01:20.795Z,93.57
2022-10-09T06:02:24.375Z,93.58
2022-10-09T06:03:59.759Z,93.55
2022-10-09T06:05:02.485Z,93.61
2022-10-09T06:06:05.447Z,93.64
2022-10-09T06:07:39.804Z,93.50
2022-10-09T06:08:42.684Z,93.56
2022-10-09T06:09:45.355Z,93.58
2022-10-09T06:11:24.226Z,93.56
2022-10-09T06:12:27.087Z,93.60
2022-10-09T06:13:30.293Z,93.61
2022-10-09T06:15:05.010Z,93.59
2022-10-09T06:16:07.803Z,93.52
2022-10-09T06:17:11.238Z,93.51
2022-10-09T06:18:48.830Z,93.50
2022-10-09T06:19:52.216Z,93.47
2022-10-09T06:20:54.849Z,93.51
2022-10-09T06:22:29.456Z,93.52
2022-10-09T06:23:32.721Z,93.47
2022-10-09T06:24:35.445Z,93.53
2022-10-09T06:26:10.019Z,93.52
2022-10-09T06:27:12.960Z,93.52
2022-10-09T06:28:15.836Z,93.63
2022-10-09T06:29:50.726Z,93.51
2022-10-09T06:30:53.723Z,93.53
2022-10-09T06:31:56.961Z,93.62
2022-10-09T06:33:32.570Z,93.62
2022-10-09T06:34:35.343Z,93.62
2022-10-09T06:35:37.977Z,93.65
2022-10-09T06:37:23.607Z,93.61
2022-10-09T06:38:26.294Z,93.66
2022-10-09T06:39:29.074Z,93.61
2022-10-09T06:41:03.645Z,93.58
2022-10-09T06:42:06.563Z,93.65
2022-10-09T06:43:09.375Z,93.66
2022-10-09T06:44:43.948Z,93.73
2022-10-09T06:45:46.846Z,93.70
2022-10-09T06:46:49.998Z,93.68
2022-10-09T06:48:24.502Z,93.76
2022-10-09T06:49:27.210Z,93.88
2022-10-09T06:50:29.807Z,93.97
2022-10-09T06:52:04.444Z,93.99
2022-10-09T06:53:07.079Z,94.07
2022-10-09T06:54:09.782Z,94.07
2022-10-09T06:55:44.497Z,94.03
2022-10-09T06:56:47.152Z,94.12
2022-10-09T06:57:49.858Z,94.09
2022-10-09T06:59:24.429Z,94.09
2022-10-09T07:00:17.970Z,94.02
2022-10-09T07:01:20.862Z,94.09
2022-10-09T07:02:24.683Z,94.10
2022-10-09T07:04:06.803Z,94.11
2022-10-09T07:05:09.538Z,94.06
2022-10-09T07:06:12.335Z,94.11
2022-10-09T07:07:46.933Z,94.16
2022-10-09T07:08:49.679Z,94.15
2022-10-09T07:09:52.466Z,94.14
2022-10-09T07:11:27.032Z,94.24
2022-10-09T07:12:30.021Z,94.25
2022-10-09T07:13:33.446Z,94.21
2022-10-09T07:15:07.945Z,94.34
2022-10-09T07:16:11.106Z,94.34
2022-10-09T07:17:14.362Z,94.29
2022-10-09T07:18:48.958Z,94.36
2022-10-09T07:19:52.020Z,94.42
2022-10-09T07:20:54.676Z,94.29
2022-10-09T07:22:32.750Z,94.29
2022-10-09T07:23:36.269Z,94.28
2022-10-09T07:24:39.105Z,94.37
2022-10-09T07:26:13.698Z,94.55
2022-10-09T07:27:16.401Z,94.47
2022-10-09T07:28:19.302Z,94.51
2022-10-09T07:29:54.315Z,94.58
2022-10-09T07:30:57.144Z,94.58
2022-10-09T07:32:00.348Z,94.64
2022-10-09T07:33:39.911Z,94.65
2022-10-09T07:34:42.687Z,94.71
2022-10-09T07:35:45.419Z,94.77
2022-10-09T07:37:19.915Z,94.70
2022-10-09T07:38:22.673Z,95.02
2022-10-09T07:39:25.424Z,94.95
2022-10-09T07:41:03.000Z,95.04
2022-10-09T07:42:05.707Z,95.11
2022-10-09T07:43:08.554Z,95.14
2022-10-09T07:44:43.163Z,95.13
2022-10-09T07:45:45.993Z,94.91
2022-10-09T07:46:49.369Z,94.90
2022-10-09T07:48:23.800Z,94.80
2022-10-09T07:49:26.586Z,95.11
2022-10-09T07:50:29.266Z,95.09
2022-10-09T07:52:03.891Z,94.77
2022-10-09T07:53:06.875Z,94.89
2022-10-09T07:54:15.546Z,94.96
2022-10-09T07:55:50.088Z,94.80
2022-10-09T07:56:52.779Z,94.75
2022-10-09T07:57:55.664Z,95.00
2022-10-09T07:59:30.153Z,94.71
2022-10-09T08:00:17.549Z,94.20
2022-10-09T08:01:25.858Z,94.29
2022-10-09T08:02:29.241Z,94.30
2022-10-09T08:04:05.068Z,94.16
2022-10-09T08:05:07.828Z,94.18
2022-10-09T08:06:10.572Z,93.85
2022-10-09T08:07:45.165Z,93.94
2022-10-09T08:08:47.950Z,93.95
2022-10-09T08:09:50.650Z,94.07
2022-10-09T08:11:25.312Z,93.95
2022-10-09T08:12:28.146Z,93.77
2022-10-09T08:13:31.747Z,93.58
2022-10-09T08:15:11.090Z,92.93
2022-10-09T08:16:14.287Z,92.61
2022-10-09T08:17:17.381Z,92.85
2022-10-09T08:18:51.802Z,92.65
2022-10-09T08:19:54.579Z,92.69
2022-10-09T08:20:57.334Z,92.07
2022-10-09T08:22:31.788Z,92.09
2022-10-09T08:23:35.002Z,91.95
2022-10-09T08:24:37.701Z,92.05
2022-10-09T08:26:12.208Z,91.65
2022-10-09T08:27:14.943Z,91.66
2022-10-09T08:28:17.748Z,91.51
2022-10-09T08:29:52.872Z,90.90
2022-10-09T08:30:55.871Z,90.97
2022-10-09T08:31:59.292Z,89.95
2022-10-09T08:33:34.326Z,90.09
2022-10-09T08:34:37.184Z,89.98
2022-10-09T08:35:40.366Z,89.99
2022-10-09T08:37:14.890Z,89.54
2022-10-09T08:38:47.833Z,89.87
2022-10-09T08:39:50.855Z,89.52
2022-10-09T08:41:25.254Z,89.50
2022-10-09T08:42:28.287Z,89.17
2022-10-09T08:43:31.863Z,88.76
2022-10-09T08:45:06.504Z,88.62
2022-10-09T08:46:09.461Z,88.27
2022-10-09T08:47:18.078Z,88.11
2022-10-09T08:48:52.766Z,86.79
2022-10-09T08:49:55.561Z,86.11
2022-10-09T08:50:58.194Z,87.06
2022-10-09T08:52:32.827Z,86.58
2022-10-09T08:53:42.367Z,87.31
2022-10-09T08:54:45.132Z,86.97
2022-10-09T08:56:19.671Z,86.11
2022-10-09T08:57:22.414Z,85.73
2022-10-09T08:58:25.183Z,86.05
2022-10-09T08:59:59.736Z,85.55
2022-10-09T09:00:18.227Z,85.73
2022-10-09T09:01:21.231Z,85.67
2022-10-09T09:02:24.763Z,86.12
2022-10-09T09:04:00.459Z,86.66
2022-10-09T09:05:03.275Z,86.81
2022-10-09T09:06:06.012Z,85.84
2022-10-09T09:07:40.718Z,83.53
2022-10-09T09:08:43.374Z,83.73
2022-10-09T09:09:46.185Z,83.54
2022-10-09T09:11:26.951Z,84.04
2022-10-09T09:12:29.700Z,83.93
2022-10-09T09:13:33.166Z,83.59
2022-10-09T09:15:07.801Z,83.65
2022-10-09T09:16:10.841Z,82.74
2022-10-09T09:17:13.947Z,82.82
2022-10-09T09:18:48.778Z,81.75
2022-10-09T09:19:51.461Z,81.34
2022-10-09T09:20:54.241Z,80.06
2022-10-09T09:22:28.753Z,81.28
2022-10-09T09:23:32.691Z,81.25
2022-10-09T09:24:35.620Z,81.43
2022-10-09T09:26:10.177Z,81.38
2022-10-09T09:27:12.952Z,79.92
2022-10-09T09:28:18.337Z,80.30
2022-10-09T09:29:53.563Z,80.83
2022-10-09T09:30:56.476Z,80.53
2022-10-09T09:31:59.758Z,80.44
2022-10-09T09:33:44.426Z,80.98
2022-10-09T09:34:47.564Z,79.95
2022-10-09T09:35:50.379Z,79.19
2022-10-09T09:37:25.032Z,78.94
2022-10-09T09:38:28.106Z,79.24
2022-10-09T09:41:27.068Z,79.03
2022-10-09T09:43:04.813Z,78.84
2022-10-09T09:44:07.867Z,78.85
2022-10-09T09:45:10.820Z,78.81
2022-10-09T09:46:45.722Z,78.69
2022-10-09T09:47:49.096Z,78.48
2022-10-09T09:48:52.183Z,78.95
2022-10-09T09:51:10.251Z,77.87
2022-10-09T09:52:27.290Z,78.57
2022-10-09T09:53:30.281Z,78.13
2022-10-09T09:55:04.918Z,78.38
2022-10-09T09:56:07.722Z,77.76
2022-10-09T09:57:28.417Z,77.58
2022-10-09T09:59:03.449Z,75.89
2022-10-09T10:00:17.992Z,74.98
2022-10-09T10:01:21.219Z,75.24
2022-10-09T10:02:24.557Z,74.84
2022-10-09T10:03:59.603Z,74.09
2022-10-09T10:05:02.585Z,74.17
2022-10-09T10:06:05.555Z,74.18
2022-10-09T10:07:39.912Z,73.04
2022-10-09T10:08:42.573Z,74.76
2022-10-09T10:09:45.379Z,75.19
2022-10-09T10:11:20.015Z,73.56
2022-10-09T10:12:22.898Z,74.11
2022-10-09T10:13:25.519Z,74.24
2022-10-09T10:15:00.155Z,74.18
2022-10-09T10:16:03.085Z,73.48
2022-10-09T10:17:06.450Z,72.65
2022-10-09T10:18:45.411Z,71.87
2022-10-09T10:19:48.395Z,72.33
2022-10-09T10:20:51.076Z,71.83
2022-10-09T10:22:25.588Z,71.99
2022-10-09T10:23:28.833Z,72.05
2022-10-09T10:24:31.772Z,72.64
2022-10-09T10:26:08.116Z,72.94
2022-10-09T10:27:11.003Z,71.94
2022-10-09T10:28:13.853Z,72.24
2022-10-09T10:29:48.794Z,72.49
2022-10-09T10:30:51.535Z,71.01
2022-10-09T10:31:54.655Z,70.26
2022-10-09T10:33:29.174Z,71.42
2022-10-09T10:34:31.931Z,71.47
2022-10-09T10:35:34.771Z,72.10
2022-10-09T10:37:09.331Z,70.83
2022-10-09T10:38:12.078Z,70.94
2022-10-09T10:39:14.853Z,70.39
2022-10-09T10:40:49.496Z,71.33
2022-10-09T10:41:52.112Z,70.96
2022-10-09T10:42:58.640Z,70.79
2022-10-09T10:44:33.934Z,69.83
2022-10-09T10:45:37.253Z,69.83
2022-10-09T10:46:40.429Z,69.40
2022-10-09T10:48:15.375Z,69.31
2022-10-09T10:49:18.145Z,69.36
2022-10-09T10:50:25.504Z,69.01
2022-10-09T10:52:00.137Z,68.72
2022-10-09T10:53:02.924Z,69.90
2022-10-09T10:54:05.717Z,68.50
2022-10-09T10:55:40.199Z,68.96
2022-10-09T10:56:48.726Z,69.59
2022-10-09T10:57:51.750Z,69.25
2022-10-09T10:59:26.584Z,70.43
2022-10-09T11:00:17.541Z,69.20
2022-10-09T11:01:20.811Z,68.85
2022-10-09T11:02:23.919Z,68.55
2022-10-09T11:04:06.762Z,67.85
2022-10-09T11:05:09.585Z,67.53
2022-10-09T11:06:12.641Z,68.13
2022-10-09T11:07:47.442Z,67.55
2022-10-09T11:08:56.364Z,67.11
2022-10-09T11:09:59.255Z,66.54
2022-10-09T11:11:34.050Z,65.44
2022-10-09T11:13:04.191Z,65.42
2022-10-09T11:14:07.477Z,66.78
2022-10-09T11:15:48.916Z,66.07
2022-10-09T11:16:52.210Z,65.30
2022-10-09T11:17:54.928Z,63.93
2022-10-09T11:19:29.550Z,64.08
2022-10-09T11:20:37.273Z,64.80
2022-10-09T11:21:39.938Z,64.54
2022-10-09T11:23:14.487Z,63.37
2022-10-09T11:24:17.266Z,63.40
2022-10-09T11:25:19.921Z,63.06
2022-10-09T11:26:55.461Z,65.29
2022-10-09T11:28:00.970Z,65.14
2022-10-09T11:29:04.203Z,64.05
2022-10-09T11:30:38.608Z,64.50
2022-10-09T11:31:41.578Z,64.90
2022-10-09T11:32:44.900Z,65.28
2022-10-09T11:34:19.568Z,65.47
2022-10-09T11:35:22.380Z,63.76
2022-10-09T11:36:25.091Z,63.19
2022-10-09T11:37:59.826Z,64.03
2022-10-09T11:39:06.478Z,63.98
2022-10-09T11:40:09.432Z,64.54
2022-10-09T11:41:47.569Z,63.54
2022-10-09T11:42:50.470Z,61.66
2022-10-09T11:43:53.235Z,62.10
2022-10-09T11:45:28.061Z,61.26
2022-10-09T11:46:31.276Z,60.68
2022-10-09T11:47:33.906Z,60.96
2022-10-09T11:49:09.247Z,61.99
2022-10-09T11:50:11.985Z,62.26
2022-10-09T11:51:14.647Z,63.33
2022-10-09T11:52:49.200Z,63.05
2022-10-09T11:53:52.047Z,63.12
2022-10-09T11:54:54.753Z,63.76
2022-10-09T11:56:29.351Z,62.69
2022-10-09T11:57:32.109Z,63.48
2022-10-09T11:58:35.454Z,62.67
2022-10-09T12:00:18.160Z,63.33
2022-10-09T12:01:20.987Z,62.44
2022-10-09T12:02:24.393Z,61.77
2022-10-09T12:04:05.569Z,61.13
2022-10-09T12:05:40.807Z,61.66
2022-10-09T12:06:43.703Z,60.80
2022-10-09T12:08:25.087Z,61.44
2022-10-09T12:09:27.969Z,63.05
2022-10-09T12:10:30.770Z,60.97
2022-10-09T12:12:05.241Z,62.14
2022-10-09T12:13:08.047Z,61.43
2022-10-09T12:14:10.758Z,61.41
2022-10-09T12:15:49.219Z,61.78
2022-10-09T12:16:52.346Z,61.76
2022-10-09T12:17:55.656Z,61.41
2022-10-09T12:19:30.115Z,61.81
2022-10-09T12:20:34.276Z,62.46
2022-10-09T12:21:37.137Z,61.21
2022-10-09T12:23:32.877Z,61.39
2022-10-09T12:24:35.879Z,60.90
2022-10-09T12:25:38.513Z,60.71
2022-10-09T12:27:12.998Z,60.20
2022-10-09T12:28:15.942Z,60.90
2022-10-09T12:29:19.014Z,60.97
2022-10-09T12:30:53.935Z,60.22
2022-10-09T12:31:57.140Z,60.94
2022-10-09T12:32:59.751Z,60.42
2022-10-09T12:34:34.217Z,60.29
2022-10-09T12:35:36.898Z,60.55
2022-10-09T12:36:39.646Z,59.81
2022-10-09T12:38:14.117Z,59.20
2022-10-09T12:39:16.958Z,59.11
2022-10-09T12:40:19.898Z,59.27
2022-10-09T12:42:00.597Z,59.86
2022-10-09T12:43:03.451Z,58.65
2022-10-09T12:44:06.115Z,57.90
2022-10-09T12:45:40.660Z,58.27
2022-10-09T12:46:43.609Z,59.29
2022-10-09T12:47:46.336Z,59.17
2022-10-09T12:49:20.953Z,58.86
2022-10-09T12:50:23.541Z,57.51
2022-10-09T12:51:26.187Z,57.51
2022-10-09T12:53:05.958Z,58.06
2022-10-09T12:54:08.686Z,56.06
2022-10-09T12:55:11.411Z,55.58
2022-10-09T12:56:45.825Z,56.90
2022-10-09T12:57:48.597Z,56.29
2022-10-09T12:58:51.313Z,54.74
2022-10-09T13:00:17.630Z,55.50
2022-10-09T13:01:20.489Z,56.43
2022-10-09T13:02:24.731Z,56.31
2022-10-09T13:04:00.876Z,57.48
2022-10-09T13:05:03.541Z,57.23
2022-10-09T13:06:06.273Z,55.71
2022-10-09T13:07:41.371Z,56.82
2022-10-09T13:08:46.007Z,56.73
2022-10-09T13:09:48.640Z,57.15
2022-10-09T13:11:22.960Z,57.67
2022-10-09T13:12:25.624Z,56.49
2022-10-09T13:13:28.873Z,57.71
2022-10-09T13:15:03.430Z,57.60
2022-10-09T13:16:10.554Z,57.84
2022-10-09T13:17:13.932Z,58.37
2022-10-09T13:18:49.598Z,57.88
2022-10-09T13:19:52.262Z,58.20
2022-10-09T13:20:54.913Z,57.65
2022-10-09T13:22:31.111Z,57.08
2022-10-09T13:23:38.218Z,55.80
2022-10-09T13:24:41.040Z,55.50
2022-10-09T13:26:15.689Z,55.50
2022-10-09T13:27:18.443Z,55.91
2022-10-09T13:28:21.470Z,56.68
2022-10-09T13:29:56.398Z,55.14
2022-10-09T13:30:59.250Z,55.21
2022-10-09T13:32:02.251Z,55.76
2022-10-09T13:33:36.894Z,55.09
2022-10-09T13:34:39.875Z,54.58
2022-10-09T13:35:42.618Z,55.19
2022-10-09T13:37:17.223Z,56.08
2022-10-09T13:38:19.953Z,55.88
2022-10-09T13:39:26.623Z,55.46
2022-10-09T13:41:01.244Z,55.71
2022-10-09T13:42:04.021Z,56.59
2022-10-09T13:43:06.686Z,56.59
2022-10-09T13:44:41.264Z,55.71
2022-10-09T13:45:44.572Z,55.24
2022-10-09T13:46:47.842Z,55.22
2022-10-09T13:48:22.352Z,54.45
2022-10-09T13:49:25.091Z,53.79
2022-10-09T13:50:27.867Z,54.38
2022-10-09T13:52:02.502Z,54.57
2022-10-09T13:53:05.336Z,55.73
2022-10-09T13:54:08.364Z,54.30
2022-10-09T13:55:43.189Z,54.37
2022-10-09T13:56:52.464Z,55.51
2022-10-09T13:57:56.424Z,54.89
2022-10-09T13:59:31.565Z,54.96
2022-10-09T14:00:17.529Z,55.24
2022-10-09T14:01:20.926Z,55.91
2022-10-09T14:02:24.760Z,55.82
2022-10-09T14:03:59.492Z,56.42
2022-10-09T14:05:02.113Z,56.23
2022-10-09T14:06:04.964Z,55.95
2022-10-09T14:07:39.568Z,56.01
2022-10-09T14:08:42.750Z,55.62
2022-10-09T14:09:45.655Z,56.23
2022-10-09T14:11:20.292Z,55.64
2022-10-09T14:12:23.249Z,55.04
2022-10-09T14:13:26.143Z,55.93
2022-10-09T14:15:00.794Z,53.89
2022-10-09T14:16:03.546Z,55.52
2022-10-09T14:17:06.150Z,55.12
2022-10-09T14:18:41.059Z,55.37
2022-10-09T14:19:43.881Z,55.50
2022-10-09T14:20:46.635Z,55.85
2022-10-09T14:22:26.929Z,55.90
2022-10-09T14:23:30.681Z,56.00
2022-10-09T14:24:33.592Z,55.98
2022-10-09T14:26:08.541Z,57.36
2022-10-09T14:27:11.200Z,56.97
2022-10-09T14:28:15.362Z,57.36
2022-10-09T14:29:53.077Z,57.39
2022-10-09T14:30:58.197Z,57.29
2022-10-09T14:32:01.117Z,57.57
2022-10-09T14:33:36.201Z,56.48
2022-10-09T14:34:38.963Z,56.99
2022-10-09T14:35:41.724Z,56.88
2022-10-09T14:37:42.811Z,57.18
2022-10-09T14:38:45.599Z,56.05
2022-10-09T14:39:48.295Z,56.58
2022-10-09T14:41:22.897Z,56.59
2022-10-09T14:42:29.565Z,56.58
2022-10-09T14:43:33.130Z,56.79
2022-10-09T14:45:08.202Z,56.70
2022-10-09T14:46:11.022Z,56.91
2022-10-09T14:47:13.725Z,56.40
2022-10-09T14:48:48.214Z,57.56
2022-10-09T14:49:51.022Z,57.56
2022-10-09T14:50:53.993Z,58.01
2022-10-09T14:52:29.107Z,59.42
2022-10-09T14:53:32.893Z,59.02
2022-10-09T14:54:35.885Z,58.82
2022-10-09T14:56:10.446Z,59.19
2022-10-09T14:57:13.175Z,59.54
2022-10-09T14:58:21.387Z,59.39
2022-10-09T14:59:55.842Z,59.63
2022-10-09T15:00:18.011Z,59.22
2022-10-09T15:01:20.730Z,60.09
2022-10-09T15:02:23.545Z,59.88
2022-10-09T15:03:58.591Z,59.64
2022-10-09T15:05:01.846Z,59.00
2022-10-09T15:06:04.541Z,58.84
2022-10-09T15:07:39.070Z,58.36
2022-10-09T15:08:42.481Z,58.70
2022-10-09T15:09:51.802Z,59.27
2022-10-09T15:11:26.369Z,58.92
2022-10-09T15:12:29.348Z,58.28
2022-10-09T15:13:32.173Z,58.14
2022-10-09T15:15:06.813Z,57.83
2022-10-09T15:16:13.159Z,57.91
2022-10-09T15:17:15.831Z,57.15
2022-10-09T15:18:50.447Z,57.72
2022-10-09T15:19:53.189Z,58.01
2022-10-09T15:20:56.043Z,58.53
2022-10-09T15:22:30.421Z,58.14
2022-10-09T15:23:33.137Z,57.66
2022-10-09T15:24:35.956Z,57.59
2022-10-09T15:26:10.470Z,58.12
2022-10-09T15:27:13.394Z,58.54
2022-10-09T15:28:16.213Z,58.58
2022-10-09T15:29:51.262Z,59.03
2022-10-09T15:30:54.057Z,58.26
2022-10-09T15:31:56.775Z,58.38
2022-10-09T15:33:31.410Z,58.99
2022-10-09T15:34:36.561Z,59.02
2022-10-09T15:35:42.838Z,59.04
2022-10-09T15:37:17.461Z,57.77
2022-10-09T15:38:20.356Z,58.31
2022-10-09T15:39:23.157Z,58.35
2022-10-09T15:40:57.663Z,58.60
2022-10-09T15:42:00.487Z,58.54
2022-10-09T15:43:03.230Z,58.63
2022-10-09T15:44:37.929Z,59.13
2022-10-09T15:45:40.672Z,59.31
2022-10-09T15:46:43.299Z,59.53
2022-10-09T15:48:41.863Z,59.16
2022-10-09T15:49:44.654Z,59.36
2022-10-09T15:50:50.646Z,59.63
2022-10-09T15:52:25.203Z,59.45
2022-10-09T15:53:28.525Z,59.56